Terminal Aerodrome Forecast
Issued by NWS

Home | Current Version | Previous Version | Text Only | Print | Product List | Glossary On
Versions: 1 2 3 4 5 6 7 8 9 10 11 12
000
FTUS44 KCRP 310500
TAFLRD
TAF
KLRD 310535Z 3106/0106 15013KT P6SM FEW015
      TEMPO 3110/3114 BKN015
     FM311800 17008KT P6SM SCT150
     FM010100 13015KT P6SM SCT250=

USA.gov is the U.S. government's official web portal to all federal, state and local government web resources and services.